Wetter

Nordholz:

METAR:

2019/05/19 20:20 ETMN 192020Z 06010KT 9999 FEW070 BKN120 BKN260 16/13 Q1006 BLU

TAF:

2019/05/17 11:47 TAF AMD ETMN 171443Z 1711/1720 10012KT 9999 NSW SCT025 BKN035 TEMPO 1711/1720 12012KT 9999 NSW BKN025 CANCEL 1500

Wind EDXN:

19.05. 19:30z 040/13kt
19.05. 19:40z 040/13kt
19.05. 19:50z 040/12G16kt
19.05. 20:00z 040/12kt
19.05. 20:10z 040/11G14kt
19.05. 20:20z 040/11G14kt
19.05. 20:30z 050/12kt
19.05. 20:40z 050/12kt
19.05. 20:50z 050/10G15kt
19.05. 21:00z 050/11G15kt

Bremen:

METAR:

2019/05/19 20:20 EDDW 192020Z 33005KT 9999 FEW033 16/13 Q1004 NOSIG

TAF:

2019/05/19 18:29 TAF EDDW 191700Z 1918/2018 30009KT 9999 FEW030 TEMPO 1918/1920 07020G35KT TSRA SCT025CB BECMG 1918/1920 04007KT PROB30 TEMPO 1919/1922 SHRA SCT030CB BECMG 1923/2002 2000 BCFG OVC003 PROB30 TEMPO 2002/2006 0500 FG OVC001 BECMG 2007/2010 9999 BKN015

Hamburg:

METAR:

2019/05/19 20:20 EDDH 192020Z 05008KT 010V070 CAVOK 14/12 Q1006 NOSIG

TAF:

2019/05/19 18:27 TAF TAF EDDH 191700Z 1918/2024 04012KT 9999 FEW030 BECMG 1918/1920 04007KT BECMG 1922/2001 2500 BCFG OVC002 TEMPO 2001/2006 0500 FG OVC001 BECMG 2006/2008 4000 BR BKN005 BECMG 2008/2010 9999 SCT020

Hannover:

METAR:

2019/05/19 20:20 EDDV 192020Z 02002KT 9999 FEW060CB 17/12 Q1004 NOSIG

TAF:

2019/05/19 18:27 TAF EDDV 191700Z 1918/2018 12008KT 9999 FEW045 BECMG 1918/1920 04005KT PROB30 TEMPO 2002/2008 3500 BR BKN013 PROB30 TEMPO 2014/2018 08015G30KT TSRA SCT035CB

Wikipedia Artikel: METARTAF

Daten von Aviation Weather Center der NOAA, es kann keine Garantie für Aktualität und Richtigkeit der Daten übernommen werden.

Die Nutzung dieser Daten zur Flugplanung ist nicht zulässig!

Inoffizielle ATIS 🙂